Time;durP1;ratioP1;P1;durP2;ratioP2;P2;SDS_P1;SDS_P2;PMS_P1;PMS_P2;Temp;Humidity;BMP_temperature;BMP_pressure;BME280_temperature;BME280_humidity;BME280_pressure;Samples;Min_cycle;Max_cycle;Signal;HPM_P1;HPM_P2
2022/02/07 00:00:23;;;;;;;;;;;23.60;45.20;;;;;;1552024;74;1761;-69
2022/02/07 00:02:25;;;;;;;;;;;23.60;45.20;;;;;;1544259;74;1695;-72
2022/02/07 00:04:33;;;;;;;;;;;23.60;45.20;;;;;;1547134;74;723;-70
2022/02/07 00:06:31;;;;;;;;;;;23.60;45.20;;;;;;1553566;74;1596;-71
2022/02/07 00:08:35;;;;;;;;;;;23.60;45.30;;;;;;1551153;74;1159;-71
2022/02/07 00:10:38;;;;;;;;;;;23.60;45.40;;;;;;1552624;74;714;-74
2022/02/07 00:12:45;;;;;;;;;;;23.60;45.40;;;;;;1542414;74;751;-72
2022/02/07 00:14:43;;;;;;;;;;;23.60;45.40;;;;;;1552311;74;1924;-73
2022/02/07 00:16:45;;;;;;;;;;;23.60;45.50;;;;;;1555521;74;1155;-74
2022/02/07 00:18:47;;;;;;;;;;;23.60;45.50;;;;;;1553777;74;731;-75
2022/02/07 00:20:49;;;;;;;;;;;23.60;45.50;;;;;;1558267;74;740;-73
2022/02/07 00:22:51;;;;;;;;;;;23.60;45.50;;;;;;1540957;74;743;-72
2022/02/07 00:24:52;;;;;;;;;;;23.60;45.50;;;;;;1547473;74;793;-72
2022/02/07 00:26:54;;;;;;;;;;;23.60;45.50;;;;;;1553655;74;1138;-72
2022/02/07 00:28:56;;;;;;;;;;;23.60;45.50;;;;;;1546840;74;781;-72
2022/02/07 00:30:58;;;;;;;;;;;23.60;45.50;;;;;;1553563;74;600;-72
2022/02/07 00:33:00;;;;;;;;;;;23.60;45.50;;;;;;1546331;74;801;-75
2022/02/07 00:35:03;;;;;;;;;;;23.70;45.60;;;;;;1557959;74;1969;-71
2022/02/07 00:37:05;;;;;;;;;;;23.70;45.60;;;;;;1549468;74;1173;-72
2022/02/07 00:39:17;;;;;;;;;;;23.60;45.50;;;;;;1547178;74;782;-72
2022/02/07 00:41:28;;;;;;;;;;;23.60;45.50;;;;;;1551204;74;1465;-71
2022/02/07 00:43:30;;;;;;;;;;;23.60;45.50;;;;;;1543777;74;1817;-71
2022/02/07 00:47:36;;;;;;;;;;;23.60;45.50;;;;;;1540631;74;1247;-72
2022/02/07 00:49:38;;;;;;;;;;;23.60;45.50;;;;;;1561311;74;813;-71
2022/02/07 00:51:40;;;;;;;;;;;23.60;45.50;;;;;;1563022;74;815;-70
2022/02/07 00:53:42;;;;;;;;;;;23.60;45.50;;;;;;1561978;74;722;-72
2022/02/07 00:55:44;;;;;;;;;;;23.60;45.50;;;;;;1554678;74;1946;-71
2022/02/07 00:57:45;;;;;;;;;;;23.60;45.50;;;;;;1555603;74;1194;-73
2022/02/07 00:59:47;;;;;;;;;;;23.60;45.50;;;;;;1550920;74;797;-74
2022/02/07 01:01:49;;;;;;;;;;;23.60;45.50;;;;;;1568256;74;725;-71
2022/02/07 01:03:51;;;;;;;;;;;23.60;45.50;;;;;;1567956;74;793;-74
2022/02/07 01:05:53;;;;;;;;;;;23.60;45.50;;;;;;1556771;74;751;-72
2022/02/07 01:07:57;;;;;;;;;;;23.60;45.50;;;;;;1555714;74;1196;-71
2022/02/07 01:09:59;;;;;;;;;;;23.60;45.50;;;;;;1548043;74;1127;-71
2022/02/07 01:14:43;;;;;;;;;;;23.60;45.50;;;;;;1541049;74;1939;-74
2022/02/07 01:16:51;;;;;;;;;;;23.50;45.50;;;;;;1546588;74;1766;-72
2022/02/07 01:23:13;;;;;;;;;;;23.60;45.50;;;;;;1545765;74;904;-72
2022/02/07 01:52:55;;;;;;;;;;;23.50;45.60;;;;;;1540885;74;879;-73
2022/02/07 01:55:00;;;;;;;;;;;23.60;45.50;;;;;;1539868;74;1933;-71
2022/02/07 01:56:51;;;;;;;;;;;23.60;45.60;;;;;;1540232;74;1541;-70
2022/02/07 01:58:52;;;;;;;;;;;23.50;45.60;;;;;;1554334;74;733;-70
2022/02/07 02:00:54;;;;;;;;;;;23.50;45.60;;;;;;1552204;74;775;-70
2022/02/07 02:02:56;;;;;;;;;;;23.50;45.50;;;;;;1542545;74;738;-68
2022/02/07 02:04:58;;;;;;;;;;;23.50;45.50;;;;;;1544752;74;736;-71
2022/02/07 02:07:00;;;;;;;;;;;23.40;45.40;;;;;;1549402;74;1172;-71
2022/02/07 02:09:02;;;;;;;;;;;23.60;45.50;;;;;;1547718;74;695;-72
2022/02/07 02:11:04;;;;;;;;;;;23.50;45.50;;;;;;1544535;74;747;-73
2022/02/07 02:13:12;;;;;;;;;;;23.60;45.50;;;;;;1546341;74;754;-74
2022/02/07 02:20:29;;;;;;;;;;;23.50;45.50;;;;;;1544018;74;1095;-73
2022/02/07 02:38:07;;;;;;;;;;;23.50;45.60;;;;;;1549126;74;1620;-70
2022/02/07 02:47:01;;;;;;;;;;;23.40;45.60;;;;;;1551638;74;1656;-69
2022/02/07 02:49:04;;;;;;;;;;;23.50;45.70;;;;;;1564974;74;895;-70
2022/02/07 02:51:08;;;;;;;;;;;23.40;45.60;;;;;;1560119;74;867;-70
2022/02/07 02:53:10;;;;;;;;;;;23.40;45.60;;;;;;1559340;74;1487;-70
2022/02/07 02:55:12;;;;;;;;;;;23.40;45.60;;;;;;1564571;74;1947;-68
2022/02/07 02:57:14;;;;;;;;;;;23.50;45.70;;;;;;1556054;74;1183;-70
2022/02/07 02:59:16;;;;;;;;;;;23.40;45.60;;;;;;1556584;74;789;-70
2022/02/07 03:01:18;;;;;;;;;;;23.50;45.70;;;;;;1543055;74;760;-70
2022/02/07 03:03:20;;;;;;;;;;;23.50;45.80;;;;;;1554132;74;775;-68
2022/02/07 03:05:22;;;;;;;;;;;23.50;45.70;;;;;;1550722;74;799;-68
2022/02/07 03:07:25;;;;;;;;;;;23.50;45.70;;;;;;1555340;74;1062;-69
2022/02/07 03:09:29;;;;;;;;;;;23.50;45.70;;;;;;1549958;74;787;-69
2022/02/07 03:11:30;;;;;;;;;;;23.50;45.70;;;;;;1558112;74;1981;-69
2022/02/07 03:13:45;;;;;;;;;;;23.50;45.70;;;;;;1552845;74;729;-69
2022/02/07 03:17:56;;;;;;;;;;;23.40;45.60;;;;;;1565694;74;1659;-71
2022/02/07 03:19:58;;;;;;;;;;;23.40;45.60;;;;;;1564183;74;783;-70
2022/02/07 03:22:00;;;;;;;;;;;23.40;45.60;;;;;;1560435;74;803;-71
2022/02/07 03:24:01;;;;;;;;;;;23.50;45.70;;;;;;1559543;74;739;-69
2022/02/07 03:26:04;;;;;;;;;;;23.50;45.70;;;;;;1559196;74;744;-69
2022/02/07 03:28:06;;;;;;;;;;;23.60;45.70;;;;;;1552378;74;1168;-69
2022/02/07 03:30:08;;;;;;;;;;;23.50;45.70;;;;;;1550674;74;802;-69
2022/02/07 03:32:10;;;;;;;;;;;23.50;45.70;;;;;;1554358;74;780;-68
2022/02/07 03:34:12;;;;;;;;;;;23.50;45.70;;;;;;1558259;74;778;-68
2022/02/07 03:36:14;;;;;;;;;;;23.60;45.70;;;;;;1555547;74;1941;-68
2022/02/07 03:38:16;;;;;;;;;;;23.50;45.70;;;;;;1551178;74;1154;-70
2022/02/07 03:40:18;;;;;;;;;;;23.50;45.70;;;;;;1551594;74;776;-68
2022/02/07 03:42:20;;;;;;;;;;;23.60;45.70;;;;;;1563555;74;675;-71
2022/02/07 03:44:22;;;;;;;;;;;23.60;45.60;;;;;;1561478;74;908;-70
2022/02/07 03:46:23;;;;;;;;;;;23.60;45.60;;;;;;1560724;74;742;-71
2022/02/07 03:48:25;;;;;;;;;;;23.60;45.60;;;;;;1559312;74;1206;-70
2022/02/07 03:50:29;;;;;;;;;;;23.70;45.60;;;;;;1564616;74;763;-68
2022/02/07 03:52:31;;;;;;;;;;;23.70;45.60;;;;;;1549984;74;781;-68
2022/02/07 03:54:33;;;;;;;;;;;23.80;45.50;;;;;;1554310;74;785;-69
2022/02/07 03:56:34;;;;;;;;;;;23.80;45.50;;;;;;1548866;74;1947;-69
2022/02/07 03:58:36;;;;;;;;;;;23.80;45.50;;;;;;1551183;74;1202;-69
2022/02/07 04:00:39;;;;;;;;;;;23.80;45.50;;;;;;1551197;74;772;-73
2022/02/07 04:02:45;;;;;;;;;;;23.80;45.50;;;;;;1544248;74;750;-72
2022/02/07 04:04:51;;;;;;;;;;;23.90;45.50;;;;;;1544993;74;1719;-72
2022/02/07 04:06:48;;;;;;;;;;;23.90;45.40;;;;;;1546265;74;1620;-73
2022/02/07 04:08:55;;;;;;;;;;;24.00;45.40;;;;;;1550550;74;796;-70
2022/02/07 04:11:11;;;;;;;;;;;24.00;45.30;;;;;;1543044;74;1617;-70
2022/02/07 04:13:05;;;;;;;;;;;24.00;45.20;;;;;;1553277;74;1611;-70
2022/02/07 04:15:13;;;;;;;;;;;24.00;45.20;;;;;;1544117;74;1384;-69
2022/02/07 04:17:16;;;;;;;;;;;24.00;45.20;;;;;;1542846;74;1927;-70
2022/02/07 04:19:20;;;;;;;;;;;24.00;45.10;;;;;;1554259;74;1484;-70
2022/02/07 04:21:21;;;;;;;;;;;24.00;45.10;;;;;;1543112;74;1560;-69
2022/02/07 04:23:23;;;;;;;;;;;24.00;45.10;;;;;;1550335;74;728;-69
2022/02/07 04:25:25;;;;;;;;;;;24.00;45.00;;;;;;1552269;74;799;-69
2022/02/07 04:27:27;;;;;;;;;;;24.00;45.00;;;;;;1543238;74;1183;-68
2022/02/07 04:29:28;;;;;;;;;;;24.10;45.00;;;;;;1544738;74;769;-68
2022/02/07 04:31:30;;;;;;;;;;;24.10;45.00;;;;;;1560906;74;789;-68
2022/02/07 04:33:32;;;;;;;;;;;24.10;45.00;;;;;;1545207;74;727;-72
2022/02/07 04:35:34;;;;;;;;;;;24.20;45.00;;;;;;1548813;74;1943;-68
2022/02/07 04:37:36;;;;;;;;;;;24.20;44.90;;;;;;1564169;73;1211;-69
2022/02/07 04:39:38;;;;;;;;;;;24.20;44.80;;;;;;1544309;74;811;-69
2022/02/07 04:41:43;;;;;;;;;;;24.10;44.80;;;;;;1556577;74;805;-75
2022/02/07 04:43:53;;;;;;;;;;;24.20;44.80;;;;;;1556579;74;923;-71
2022/02/07 04:46:26;;;;;;;;;;;24.20;44.80;;;;;;1546956;74;1483;-70
2022/02/07 04:50:49;;;;;;;;;;;24.30;44.90;;;;;;1467203;79;1071;-71
2022/02/07 04:55:05;;;;;;;;;;;24.20;44.70;;;;;;1550405;74;1661;-70
2022/02/07 04:57:14;;;;;;;;;;;24.20;44.70;;;;;;1560183;74;1928;-70
2022/02/07 04:59:16;;;;;;;;;;;24.20;44.70;;;;;;1544919;74;1664;-70
2022/02/07 05:01:30;;;;;;;;;;;24.20;44.60;;;;;;1551312;74;1633;-70
2022/02/07 05:03:27;;;;;;;;;;;24.30;44.70;;;;;;1546258;74;1705;-69
2022/02/07 05:14:35;;;;;;;;;;;24.30;44.70;;;;;;1541196;74;1686;-69
2022/02/07 05:16:38;;;;;;;;;;;24.20;44.60;;;;;;1546308;74;1916;-70
2022/02/07 05:18:39;;;;;;;;;;;24.20;44.50;;;;;;1548188;74;744;-71
2022/02/07 05:20:41;;;;;;;;;;;24.30;44.60;;;;;;1547754;74;635;-69
2022/02/07 05:22:43;;;;;;;;;;;24.20;44.50;;;;;;1544017;74;795;-72
2022/02/07 05:24:45;;;;;;;;;;;24.30;44.50;;;;;;1549621;74;783;-70
2022/02/07 05:26:47;;;;;;;;;;;24.30;44.50;;;;;;1544058;74;1129;-69
2022/02/07 05:28:49;;;;;;;;;;;24.30;44.40;;;;;;1563855;74;777;-68
2022/02/07 05:30:51;;;;;;;;;;;24.30;44.40;;;;;;1555414;74;781;-71
2022/02/07 05:32:53;;;;;;;;;;;24.30;44.40;;;;;;1549233;74;817;-71
2022/02/07 05:34:54;;;;;;;;;;;24.30;44.40;;;;;;1553799;74;725;-68
2022/02/07 05:36:57;;;;;;;;;;;24.30;44.30;;;;;;1552345;74;1931;-70
2022/02/07 05:39:01;;;;;;;;;;;24.30;44.40;;;;;;1549047;74;737;-68
2022/02/07 05:41:04;;;;;;;;;;;24.30;44.40;;;;;;1553586;74;820;-69
2022/02/07 05:43:08;;;;;;;;;;;24.30;44.40;;;;;;1546875;74;869;-71
2022/02/07 05:45:10;;;;;;;;;;;24.30;44.30;;;;;;1554018;74;793;-67
2022/02/07 05:47:12;;;;;;;;;;;24.30;44.40;;;;;;1549990;74;1092;-69
2022/02/07 05:49:14;;;;;;;;;;;24.30;44.40;;;;;;1553253;74;812;-67
2022/02/07 05:51:16;;;;;;;;;;;24.30;44.50;;;;;;1541557;74;806;-69
2022/02/07 05:53:18;;;;;;;;;;;24.20;44.40;;;;;;1549694;74;796;-68
2022/02/07 05:55:20;;;;;;;;;;;24.20;44.30;;;;;;1543006;74;794;-69
2022/02/07 05:57:22;;;;;;;;;;;24.20;44.40;;;;;;1546740;74;1945;-68
2022/02/07 05:59:24;;;;;;;;;;;24.20;44.40;;;;;;1550345;74;689;-67
2022/02/07 06:01:26;;;;;;;;;;;24.30;44.60;;;;;;1544894;74;732;-70
2022/02/07 06:03:27;;;;;;;;;;;24.30;44.60;;;;;;1559720;74;784;-68
2022/02/07 06:05:29;;;;;;;;;;;24.30;44.70;;;;;;1545802;74;715;-67
2022/02/07 06:07:31;;;;;;;;;;;24.30;44.80;;;;;;1564699;74;1189;-66
2022/02/07 06:09:33;;;;;;;;;;;24.30;44.80;;;;;;1540496;74;682;-67
2022/02/07 06:11:35;;;;;;;;;;;24.30;44.80;;;;;;1550625;74;696;-69
2022/02/07 06:13:38;;;;;;;;;;;24.30;44.70;;;;;;1549544;74;734;-69
2022/02/07 06:15:40;;;;;;;;;;;24.30;44.80;;;;;;1547534;74;734;-67
2022/02/07 06:17:43;;;;;;;;;;;24.40;44.70;;;;;;1553561;74;1919;-67
2022/02/07 06:19:45;;;;;;;;;;;24.30;44.70;;;;;;1555873;74;851;-71
2022/02/07 06:21:47;;;;;;;;;;;24.30;44.70;;;;;;1553152;74;773;-69
2022/02/07 06:23:49;;;;;;;;;;;24.40;44.70;;;;;;1550220;74;761;-68
2022/02/07 06:25:51;;;;;;;;;;;24.40;44.60;;;;;;1553636;74;731;-69
2022/02/07 06:27:53;;;;;;;;;;;24.30;44.70;;;;;;1553648;74;1190;-69
2022/02/07 06:29:55;;;;;;;;;;;24.30;44.50;;;;;;1543195;74;771;-71
2022/02/07 06:31:57;;;;;;;;;;;24.30;44.50;;;;;;1551804;74;793;-68
2022/02/07 06:33:59;;;;;;;;;;;24.30;44.50;;;;;;1562202;74;724;-68
2022/02/07 06:36:01;;;;;;;;;;;24.30;44.40;;;;;;1559092;74;742;-69
2022/02/07 06:38:02;;;;;;;;;;;24.40;44.40;;;;;;1558781;74;1132;-69
2022/02/07 06:40:05;;;;;;;;;;;24.40;44.40;;;;;;1548397;74;776;-69
2022/02/07 06:42:07;;;;;;;;;;;24.30;44.30;;;;;;1550301;74;808;-68
2022/02/07 06:44:09;;;;;;;;;;;24.30;44.40;;;;;;1549144;74;767;-68
2022/02/07 06:46:11;;;;;;;;;;;24.40;44.40;;;;;;1564446;74;695;-68
2022/02/07 06:48:13;;;;;;;;;;;24.40;44.40;;;;;;1550184;74;1111;-68
2022/02/07 06:50:15;;;;;;;;;;;24.40;44.30;;;;;;1562316;74;764;-68
2022/02/07 06:52:17;;;;;;;;;;;24.40;44.30;;;;;;1549704;74;759;-69
2022/02/07 06:54:19;;;;;;;;;;;24.30;44.30;;;;;;1547265;74;731;-71
2022/02/07 06:56:21;;;;;;;;;;;24.30;44.20;;;;;;1557092;74;1927;-68
2022/02/07 06:58:22;;;;;;;;;;;24.30;44.20;;;;;;1543339;74;1105;-68
2022/02/07 07:00:25;;;;;;;;;;;24.30;44.10;;;;;;1548036;74;780;-68
2022/02/07 07:02:27;;;;;;;;;;;24.30;44.00;;;;;;1547681;74;711;-68
2022/02/07 07:04:30;;;;;;;;;;;24.30;44.10;;;;;;1553486;74;857;-71
2022/02/07 07:06:32;;;;;;;;;;;24.30;43.90;;;;;;1547617;74;787;-70
2022/02/07 07:08:38;;;;;;;;;;;24.30;43.90;;;;;;1561294;74;1129;-71
2022/02/07 07:10:37;;;;;;;;;;;24.30;43.90;;;;;;1553718;74;1471;-68
2022/02/07 07:12:42;;;;;;;;;;;24.30;43.90;;;;;;1553077;74;803;-69
2022/02/07 07:14:50;;;;;;;;;;;24.40;43.80;;;;;;1555982;74;1664;-69
2022/02/07 07:16:52;;;;;;;;;;;24.40;43.90;;;;;;1548132;74;1904;-69
2022/02/07 07:18:54;;;;;;;;;;;24.30;43.90;;;;;;1553439;74;736;-68
2022/02/07 07:20:56;;;;;;;;;;;24.30;43.90;;;;;;1548883;74;927;-71
2022/02/07 07:23:00;;;;;;;;;;;24.20;43.40;;;;;;1555374;74;841;-68
2022/02/07 07:25:02;;;;;;;;;;;24.20;43.10;;;;;;1552252;74;1664;-66
2022/02/07 07:27:07;;;;;;;;;;;24.10;43.00;;;;;;1557190;74;1088;-69
2022/02/07 07:29:14;;;;;;;;;;;24.10;42.80;;;;;;1556229;74;799;-72
2022/02/07 07:31:14;;;;;;;;;;;24.00;42.40;;;;;;1554996;74;1601;-68
2022/02/07 07:33:20;;;;;;;;;;;24.00;42.40;;;;;;1555663;74;879;-68
2022/02/07 07:35:19;;;;;;;;;;;23.90;42.20;;;;;;1558616;74;1628;-69
2022/02/07 07:37:21;;;;;;;;;;;23.90;42.10;;;;;;1558674;74;1943;-73
2022/02/07 07:39:23;;;;;;;;;;;23.90;41.90;;;;;;1558408;74;803;-70
2022/02/07 07:41:26;;;;;;;;;;;23.80;41.30;;;;;;1550370;74;779;-71
2022/02/07 07:43:28;;;;;;;;;;;23.80;41.50;;;;;;1555200;74;813;-70
2022/02/07 07:45:33;;;;;;;;;;;23.70;41.10;;;;;;1563379;74;678;-71
2022/02/07 07:47:34;;;;;;;;;;;23.70;41.20;;;;;;1564921;74;1156;-68
2022/02/07 07:49:55;;;;;;;;;;;23.70;41.30;;;;;;1563198;74;723;-73
2022/02/07 07:51:58;;;;;;;;;;;23.80;41.30;;;;;;1559231;74;1018;-68
2022/02/07 07:54:17;;;;;;;;;;;23.90;41.40;;;;;;1564722;74;1052;-72
2022/02/07 08:03:08;;;;;;;;;;;23.90;41.60;;;;;;1556408;74;1622;-68
2022/02/07 08:05:20;;;;;;;;;;;23.90;41.60;;;;;;1556034;74;784;-66
2022/02/07 08:07:27;;;;;;;;;;;24.00;41.70;;;;;;1551408;74;1684;-71
2022/02/07 08:11:40;;;;;;;;;;;24.00;41.70;;;;;;1547594;74;824;-69
2022/02/07 08:13:44;;;;;;;;;;;24.00;41.70;;;;;;1548491;74;1759;-70
2022/02/07 08:15:46;;;;;;;;;;;24.10;41.90;;;;;;1549168;74;1643;-70
2022/02/07 08:17:48;;;;;;;;;;;24.10;41.90;;;;;;1543992;73;1915;-68
2022/02/07 08:19:51;;;;;;;;;;;24.10;41.80;;;;;;1561076;74;736;-69
2022/02/07 08:21:54;;;;;;;;;;;24.10;41.90;;;;;;1551163;74;813;-69
2022/02/07 08:23:56;;;;;;;;;;;24.20;41.90;;;;;;1555438;74;697;-71
2022/02/07 08:26:01;;;;;;;;;;;24.20;41.90;;;;;;1557702;74;807;-69
2022/02/07 08:28:02;;;;;;;;;;;24.20;41.80;;;;;;1552296;74;1663;-68
2022/02/07 08:30:04;;;;;;;;;;;24.20;41.90;;;;;;1560277;74;810;-70
2022/02/07 08:32:06;;;;;;;;;;;24.20;41.80;;;;;;1562680;74;815;-69
2022/02/07 08:34:08;;;;;;;;;;;24.20;42.00;;;;;;1543950;74;823;-68
2022/02/07 08:36:10;;;;;;;;;;;24.20;41.90;;;;;;1549152;74;711;-69
2022/02/07 08:38:11;;;;;;;;;;;24.20;41.90;;;;;;1558630;74;1950;-68
2022/02/07 08:40:13;;;;;;;;;;;24.20;41.90;;;;;;1557073;74;828;-70
2022/02/07 08:42:15;;;;;;;;;;;24.30;42.10;;;;;;1549553;74;808;-71
2022/02/07 08:44:18;;;;;;;;;;;24.30;42.00;;;;;;1558673;74;734;-68
2022/02/07 08:46:20;;;;;;;;;;;24.30;42.10;;;;;;1549744;74;816;-71
2022/02/07 08:48:23;;;;;;;;;;;24.30;42.00;;;;;;1558399;74;1046;-68
2022/02/07 08:50:26;;;;;;;;;;;24.30;42.00;;;;;;1572288;74;725;-69
2022/02/07 08:52:27;;;;;;;;;;;24.30;42.10;;;;;;1562097;74;748;-69
2022/02/07 08:54:30;;;;;;;;;;;24.30;42.10;;;;;;1553567;74;784;-70
2022/02/07 08:56:49;;;;;;;;;;;24.30;42.00;;;;;;1550262;74;704;-70
2022/02/07 08:58:45;;;;;;;;;;;24.30;42.00;;;;;;1561734;74;1901;-70
2022/02/07 09:05:37;;;;;;;;;;;24.30;42.00;;;;;;1519006;76;860;-70
2022/02/07 09:07:31;;;;;;;;;;;24.40;42.00;;;;;;1512406;77;1592;-68
2022/02/07 09:09:28;;;;;;;;;;;24.30;42.00;;;;;;1531934;75;1827;-68
2022/02/07 09:11:30;;;;;;;;;;;24.40;42.00;;;;;;1506672;78;725;-68
2022/02/07 09:13:33;;;;;;;;;;;24.50;42.00;;;;;;1517199;77;668;-68
2022/02/07 09:15:42;;;;;;;;;;;24.40;41.90;;;;;;1501854;78;676;-69
2022/02/07 09:17:38;;;;;;;;;;;24.50;42.00;;;;;;1509779;77;1947;-68
2022/02/07 09:19:40;;;;;;;;;;;24.40;41.90;;;;;;1507002;77;788;-68
2022/02/07 09:21:42;;;;;;;;;;;24.50;42.00;;;;;;1534104;76;703;-69
2022/02/07 09:23:45;;;;;;;;;;;24.40;41.90;;;;;;1532391;76;783;-69
2022/02/07 09:25:47;;;;;;;;;;;24.50;42.00;;;;;;1524683;76;719;-68
2022/02/07 09:27:49;;;;;;;;;;;24.50;42.00;;;;;;1544183;76;1087;-66
2022/02/07 09:29:50;;;;;;;;;;;24.50;42.00;;;;;;1533707;76;674;-70
2022/02/07 09:31:52;;;;;;;;;;;24.40;41.90;;;;;;1506762;78;769;-70
2022/02/07 09:33:54;;;;;;;;;;;24.50;42.00;;;;;;1509275;77;815;-70
2022/02/07 09:35:56;;;;;;;;;;;24.50;42.00;;;;;;1507174;77;686;-69
2022/02/07 09:37:58;;;;;;;;;;;24.50;42.00;;;;;;1539250;76;1958;-69
2022/02/07 09:40:00;;;;;;;;;;;24.50;41.90;;;;;;1541100;76;689;-69
2022/02/07 09:42:03;;;;;;;;;;;24.50;41.90;;;;;;1533704;76;724;-68
2022/02/07 09:44:06;;;;;;;;;;;24.60;41.90;;;;;;1532548;76;713;-69
2022/02/07 09:46:12;;;;;;;;;;;24.60;41.90;;;;;;1530756;76;637;-68
2022/02/07 09:48:14;;;;;;;;;;;24.50;41.80;;;;;;1538699;76;1524;-68
2022/02/07 09:50:16;;;;;;;;;;;24.60;41.80;;;;;;1537329;76;787;-69
2022/02/07 09:52:18;;;;;;;;;;;24.60;41.80;;;;;;1534602;76;677;-70
2022/02/07 09:54:21;;;;;;;;;;;24.60;41.80;;;;;;1548045;76;774;-68
2022/02/07 09:56:24;;;;;;;;;;;24.60;41.70;;;;;;1549160;76;744;-68
2022/02/07 09:58:26;;;;;;;;;;;24.60;41.80;;;;;;1523983;76;1953;-69
2022/02/07 10:00:35;;;;;;;;;;;24.60;41.80;;;;;;1538531;76;730;-68
2022/02/07 10:02:43;;;;;;;;;;;24.60;41.70;;;;;;1534436;76;1426;-68
2022/02/07 10:04:41;;;;;;;;;;;24.60;41.70;;;;;;1547452;76;1682;-70
2022/02/07 10:08:53;;;;;;;;;;;24.60;41.70;;;;;;1542831;76;859;-69
2022/02/07 10:10:54;;;;;;;;;;;24.60;41.70;;;;;;1511769;77;1047;-68
2022/02/07 10:13:10;;;;;;;;;;;24.60;41.70;;;;;;1532866;76;1786;-68
2022/02/07 10:15:16;;;;;;;;;;;24.60;41.80;;;;;;1502112;78;1615;-67
2022/02/07 10:35:48;;;;;;;;;;;24.60;41.80;;;;;;1531802;76;846;-69
2022/02/07 10:39:36;;;;;;;;;;;24.50;41.80;;;;;;1517308;76;1688;-69
2022/02/07 10:41:53;;;;;;;;;;;24.50;41.90;;;;;;1512060;76;1639;-72
2022/02/07 10:46:08;;;;;;;;;;;24.60;41.80;;;;;;1512431;76;742;-69
2022/02/07 10:48:12;;;;;;;;;;;24.60;41.80;;;;;;1503223;76;1701;-69
2022/02/07 10:50:14;;;;;;;;;;;24.60;41.90;;;;;;1519311;76;1447;-71
2022/02/07 10:52:16;;;;;;;;;;;24.60;41.90;;;;;;1524185;76;742;-69
2022/02/07 10:54:18;;;;;;;;;;;24.50;41.90;;;;;;1510160;76;704;-70
2022/02/07 10:56:20;;;;;;;;;;;24.60;41.90;;;;;;1511896;76;754;-71
2022/02/07 10:58:22;;;;;;;;;;;24.60;41.90;;;;;;1510392;76;1960;-74
2022/02/07 11:00:29;;;;;;;;;;;24.70;42.00;;;;;;1523813;76;700;-70
2022/02/07 11:04:59;;;;;;;;;;;24.70;42.10;;;;;;1469102;80;1289;-70
2022/02/07 11:06:59;;;;;;;;;;;24.60;42.00;;;;;;1473334;80;1168;-71
2022/02/07 11:09:14;;;;;;;;;;;24.60;42.00;;;;;;1472790;79;1607;-68
2022/02/07 11:15:38;;;;;;;;;;;24.60;42.00;;;;;;1425537;83;1069;-69
2022/02/07 11:20:06;;;;;;;;;;;24.70;42.10;;;;;;1520630;76;1710;-68
2022/02/07 11:26:47;;;;;;;;;;;24.60;41.90;;;;;;1513967;76;822;-70
2022/02/07 11:28:43;;;;;;;;;;;24.60;41.90;;;;;;1525372;76;1777;-69
2022/02/07 11:30:49;;;;;;;;;;;24.60;41.90;;;;;;1512528;76;789;-69
2022/02/07 11:32:54;;;;;;;;;;;24.60;41.90;;;;;;1525657;76;683;-69
2022/02/07 11:34:56;;;;;;;;;;;24.70;42.00;;;;;;1528439;76;1622;-68
2022/02/07 11:37:00;;;;;;;;;;;24.60;42.00;;;;;;1519756;76;1670;-71
2022/02/07 11:39:07;;;;;;;;;;;24.70;42.10;;;;;;1522137;76;1950;-70
2022/02/07 11:41:09;;;;;;;;;;;24.70;42.10;;;;;;1530889;76;1269;-70
2022/02/07 11:43:18;;;;;;;;;;;24.70;42.10;;;;;;1513461;76;719;-69
2022/02/07 11:45:20;;;;;;;;;;;24.70;42.00;;;;;;1522528;76;784;-69
2022/02/07 11:47:26;;;;;;;;;;;24.70;42.00;;;;;;1502268;76;1183;-68
2022/02/07 11:49:27;;;;;;;;;;;24.60;41.90;;;;;;1509029;76;885;-69
2022/02/07 11:51:30;;;;;;;;;;;24.70;42.00;;;;;;1500076;76;708;-70
2022/02/07 11:53:38;;;;;;;;;;;24.60;41.80;;;;;;1529646;76;726;-69
2022/02/07 11:55:43;;;;;;;;;;;24.60;41.90;;;;;;1521010;76;1714;-71
2022/02/07 11:57:52;;;;;;;;;;;24.60;41.80;;;;;;1517512;76;1156;-70
2022/02/07 11:59:59;;;;;;;;;;;24.70;42.00;;;;;;1499075;76;1642;-70
2022/02/07 12:02:02;;;;;;;;;;;24.60;41.90;;;;;;1500502;76;763;-69
2022/02/07 12:04:06;;;;;;;;;;;24.70;42.10;;;;;;1504484;76;689;-69
2022/02/07 12:06:09;;;;;;;;;;;24.70;42.00;;;;;;1513508;76;1159;-68
2022/02/07 12:08:18;;;;;;;;;;;24.60;41.90;;;;;;1501907;76;1159;-68
2022/02/07 12:10:27;;;;;;;;;;;24.60;42.00;;;;;;1502889;76;813;-69
2022/02/07 12:12:34;;;;;;;;;;;24.70;42.10;;;;;;1497915;76;717;-67
2022/02/07 12:14:37;;;;;;;;;;;24.60;42.00;;;;;;1519371;76;1889;-67
2022/02/07 12:16:40;;;;;;;;;;;24.60;42.00;;;;;;1505739;76;786;-70
2022/02/07 12:18:42;;;;;;;;;;;24.70;42.20;;;;;;1525451;76;1990;-67
2022/02/07 12:20:45;;;;;;;;;;;24.60;42.10;;;;;;1512679;76;727;-69
2022/02/07 12:22:50;;;;;;;;;;;24.70;42.30;;;;;;1502345;76;782;-69
2022/02/07 12:24:56;;;;;;;;;;;24.70;42.30;;;;;;1521306;76;765;-70
2022/02/07 12:27:00;;;;;;;;;;;24.60;42.30;;;;;;1508023;76;1579;-69
2022/02/07 12:29:02;;;;;;;;;;;24.60;42.30;;;;;;1507260;76;1604;-70
2022/02/07 12:31:11;;;;;;;;;;;24.60;42.30;;;;;;1501555;76;1664;-69
2022/02/07 12:33:07;;;;;;;;;;;24.60;42.30;;;;;;1507906;76;1621;-73
2022/02/07 12:35:09;;;;;;;;;;;24.70;42.40;;;;;;1511260;76;860;-68
2022/02/07 12:37:11;;;;;;;;;;;24.70;42.50;;;;;;1504706;76;1185;-68
2022/02/07 12:39:14;;;;;;;;;;;24.70;42.40;;;;;;1507910;76;2294;-70
2022/02/07 12:41:16;;;;;;;;;;;24.60;42.30;;;;;;1523988;76;735;-68
2022/02/07 12:43:20;;;;;;;;;;;24.70;42.50;;;;;;1510225;76;752;-69
2022/02/07 12:45:25;;;;;;;;;;;24.60;42.30;;;;;;1510306;76;1039;-69
2022/02/07 12:47:27;;;;;;;;;;;24.70;42.40;;;;;;1518506;76;1492;-72
2022/02/07 12:49:30;;;;;;;;;;;24.60;42.30;;;;;;1520881;76;724;-68
2022/02/07 12:51:43;;;;;;;;;;;24.60;42.30;;;;;;1511530;76;1684;-69
2022/02/07 12:53:46;;;;;;;;;;;24.60;42.30;;;;;;1504627;76;667;-70
2022/02/07 12:55:55;;;;;;;;;;;24.70;42.40;;;;;;1511077;76;766;-70
2022/02/07 12:57:52;;;;;;;;;;;24.60;42.30;;;;;;1513152;76;1588;-69
2022/02/07 12:59:55;;;;;;;;;;;24.70;42.40;;;;;;1516279;76;1938;-69
2022/02/07 13:01:56;;;;;;;;;;;24.70;42.40;;;;;;1516106;76;672;-69
2022/02/07 13:04:03;;;;;;;;;;;24.60;42.30;;;;;;1506411;76;713;-70
2022/02/07 13:06:05;;;;;;;;;;;24.60;42.30;;;;;;1511088;76;583;-68
2022/02/07 13:08:08;;;;;;;;;;;24.70;42.30;;;;;;1522015;76;1183;-70
2022/02/07 13:10:12;;;;;;;;;;;24.60;42.10;;;;;;1505131;76;759;-70
2022/02/07 13:12:21;;;;;;;;;;;24.60;42.10;;;;;;1511866;76;2029;-70
2022/02/07 13:14:18;;;;;;;;;;;24.60;42.10;;;;;;1514640;76;1661;-69
2022/02/07 13:16:20;;;;;;;;;;;24.60;42.10;;;;;;1520138;76;707;-69
2022/02/07 13:18:22;;;;;;;;;;;24.60;42.10;;;;;;1521521;76;1920;-68
2022/02/07 13:20:24;;;;;;;;;;;24.60;42.10;;;;;;1514823;76;748;-69
2022/02/07 13:22:26;;;;;;;;;;;24.60;42.10;;;;;;1518298;76;782;-70
2022/02/07 13:24:31;;;;;;;;;;;24.60;42.10;;;;;;1495974;78;746;-67
2022/02/07 13:26:33;;;;;;;;;;;24.60;42.10;;;;;;1515241;77;692;-68
2022/02/07 13:28:38;;;;;;;;;;;24.60;42.10;;;;;;1507858;76;1083;-72
2022/02/07 13:30:41;;;;;;;;;;;24.70;42.30;;;;;;1511894;76;1448;-69
2022/02/07 13:32:43;;;;;;;;;;;24.70;42.20;;;;;;1525440;76;770;-68
2022/02/07 13:34:46;;;;;;;;;;;24.70;42.20;;;;;;1501042;77;763;-69
2022/02/07 13:36:50;;;;;;;;;;;24.60;42.10;;;;;;1528663;76;1159;-69
2022/02/07 13:39:01;;;;;;;;;;;24.60;42.10;;;;;;1519897;76;1930;-68
2022/02/07 13:41:03;;;;;;;;;;;24.60;42.10;;;;;;1569640;74;797;-68
2022/02/07 13:43:05;;;;;;;;;;;24.60;42.10;;;;;;1562813;74;776;-69
2022/02/07 13:45:11;;;;;;;;;;;24.60;42.10;;;;;;1544417;76;1249;-68
2022/02/07 13:47:12;;;;;;;;;;;24.60;42.20;;;;;;1568079;74;1144;-70
2022/02/07 13:49:14;;;;;;;;;;;24.60;42.20;;;;;;1572888;74;686;-67
2022/02/07 13:51:16;;;;;;;;;;;24.70;42.30;;;;;;1527361;76;840;-69
2022/02/07 13:53:18;;;;;;;;;;;24.60;42.20;;;;;;1523391;76;732;-68
2022/02/07 13:55:22;;;;;;;;;;;24.60;42.20;;;;;;1508923;78;830;-68
2022/02/07 13:57:24;;;;;;;;;;;24.70;42.30;;;;;;1507334;78;1099;-68
2022/02/07 13:59:26;;;;;;;;;;;24.70;42.30;;;;;;1499163;78;1947;-70
2022/02/07 14:01:29;;;;;;;;;;;24.60;42.20;;;;;;1503327;78;811;-69
2022/02/07 14:03:33;;;;;;;;;;;24.70;42.40;;;;;;1525338;76;1960;-68
2022/02/07 14:05:36;;;;;;;;;;;24.70;42.40;;;;;;1505123;77;1184;-69
2022/02/07 14:07:51;;;;;;;;;;;24.60;42.30;;;;;;1531046;76;1162;-69
2022/02/07 14:09:53;;;;;;;;;;;24.70;42.40;;;;;;1530724;76;792;-69
2022/02/07 14:11:58;;;;;;;;;;;24.70;42.40;;;;;;1524922;76;914;-69
2022/02/07 14:14:01;;;;;;;;;;;24.70;42.40;;;;;;1525426;76;1704;-71
2022/02/07 14:16:06;;;;;;;;;;;24.70;42.50;;;;;;1505563;76;1722;-72
2022/02/07 14:18:12;;;;;;;;;;;24.70;42.50;;;;;;1525420;77;1179;-70
2022/02/07 14:20:17;;;;;;;;;;;24.70;42.50;;;;;;1531782;76;1922;-70
2022/02/07 14:22:15;;;;;;;;;;;24.70;42.50;;;;;;1529774;76;1807;-72
2022/02/07 14:24:18;;;;;;;;;;;24.70;42.50;;;;;;1533597;76;747;-71
2022/02/07 14:26:21;;;;;;;;;;;24.70;42.50;;;;;;1530701;76;843;-68